Time;durP1;ratioP1;P1;durP2;ratioP2;P2;SDS_P1;SDS_P2;PMS_P1;PMS_P2;Temp;Humidity;BMP_temperature;BMP_pressure;BME280_temperature;BME280_humidity;BME280_pressure;Samples;Min_cycle;Max_cycle;Signal;HPM_P1;HPM_P2
2023/09/03 03:01:29;;;;;;;2.95;1.67;;;;;;;15.23;84.09;101899.78;4807334;23;20054;-44
2023/09/03 03:03:56;;;;;;;2.38;1.35;;;;;;;15.23;84.35;101892.25;5009093;28;20034;-44
2023/09/03 03:06:23;;;;;;;3.40;1.33;;;;;;;15.22;84.44;101879.44;5009591;28;20050;-44
2023/09/03 03:08:50;;;;;;;5.45;2.45;;;;;;;15.19;84.55;101888.53;4970684;28;20601;-44
2023/09/03 03:11:17;;;;;;;1.85;1.45;;;;;;;15.18;84.64;101895.28;5002288;28;20052;-44
2023/09/03 03:13:47;;;;;;;2.53;1.70;;;;;;;15.18;84.78;101895.28;5004109;28;20141;-45
2023/09/03 03:16:15;;;;;;;2.35;1.92;;;;;;;15.16;84.87;101892.03;5008699;28;20054;-44
2023/09/03 03:18:45;;;;;;;1.42;1.33;;;;;;;15.15;85.05;101886.78;5009573;28;20077;-51
2023/09/03 03:21:22;;;;;;;2.20;1.17;;;;;;;15.13;85.18;101887.13;5009666;28;20454;-45
2023/09/03 03:23:53;;;;;;;3.55;1.48;;;;;;;15.13;85.07;101886.31;5004780;28;20041;-44
2023/09/03 03:26:20;;;;;;;1.95;1.40;;;;;;;15.10;85.36;101881.44;5012006;28;20042;-44
2023/09/03 03:28:47;;;;;;;7.90;2.95;;;;;;;15.11;85.47;101889.47;5007673;28;20514;-51
2023/09/03 03:31:19;;;;;;;5.00;1.77;;;;;;;15.08;85.51;101879.00;4988461;28;20060;-44
2023/09/03 03:33:47;;;;;;;2.50;1.55;;;;;;;15.10;85.54;101875.84;5007918;28;20119;-44
2023/09/03 03:36:19;;;;;;;2.55;1.88;;;;;;;15.05;85.56;101874.13;5008976;28;20041;-45
2023/09/03 03:38:47;;;;;;;3.03;1.40;;;;;;;15.05;85.75;101867.72;5009351;28;20128;-43
2023/09/03 03:41:17;;;;;;;1.70;1.50;;;;;;;15.03;85.69;101867.25;5010157;28;20045;-43
2023/09/03 03:43:47;;;;;;;4.75;1.80;;;;;;;15.02;85.98;101874.00;5009440;28;20114;-44
2023/09/03 03:46:16;;;;;;;2.67;1.95;;;;;;;15.00;86.04;101871.56;5007474;28;20068;-43
2023/09/03 03:48:43;;;;;;;2.00;1.77;;;;;;;14.98;86.04;101871.09;5009335;28;20216;-47
2023/09/03 03:51:10;;;;;;;3.60;1.67;;;;;;;14.95;86.18;101871.78;5011818;28;20473;-44
2023/09/03 03:53:37;;;;;;;5.18;1.73;;;;;;;14.93;86.42;101871.31;5012864;28;20049;-44
2023/09/03 03:56:06;;;;;;;4.82;1.85;;;;;;;14.92;86.32;101857.72;5012063;28;20041;-45
2023/09/03 03:58:35;;;;;;;2.17;1.60;;;;;;;14.91;86.58;101861.66;5008885;28;20112;-43
2023/09/03 04:01:15;;;;;;;3.35;1.55;;;;;;;14.89;86.59;101859.22;5010192;28;20050;-43
2023/09/03 04:03:44;;;;;;;4.15;2.30;;;;;;;14.88;86.50;101848.44;5012507;28;20037;-43
2023/09/03 04:06:11;;;;;;;3.58;2.10;;;;;;;14.87;86.47;101857.94;5010870;28;20054;-45
2023/09/03 04:08:39;;;;;;;3.78;2.08;;;;;;;14.85;86.54;101860.28;5011974;28;20045;-44
2023/09/03 04:11:09;;;;;;;2.90;1.45;;;;;;;14.84;86.48;101850.28;5011173;28;20046;-43
2023/09/03 04:13:37;;;;;;;3.05;1.95;;;;;;;14.82;86.68;101859.00;5012169;28;20148;-44
2023/09/03 04:16:10;;;;;;;2.38;1.73;;;;;;;14.79;86.83;101856.09;5011944;28;20056;-47
2023/09/03 04:18:37;;;;;;;4.72;2.00;;;;;;;14.73;86.97;101858.28;5007385;28;20037;-44
2023/09/03 04:21:04;;;;;;;2.17;1.95;;;;;;;14.73;87.27;101854.66;5011645;28;20045;-46
2023/09/03 04:23:31;;;;;;;3.63;1.88;;;;;;;14.71;87.38;101846.66;5013808;28;20133;-43
2023/09/03 04:25:58;;;;;;;6.75;1.88;;;;;;;14.70;87.51;101838.63;5014727;28;20536;-44
2023/09/03 04:28:25;;;;;;;3.80;2.22;;;;;;;14.70;87.48;101831.09;4999303;28;20057;-45
2023/09/03 04:30:59;;;;;;;1.83;1.73;;;;;;;14.68;87.86;101838.16;5011698;28;20124;-43
2023/09/03 04:33:26;;;;;;;4.60;2.10;;;;;;;14.65;87.65;101834.09;5013608;28;20157;-45
2023/09/03 04:35:58;;;;;;;5.18;2.15;;;;;;;14.65;88.03;101831.31;5017054;28;20054;-44
2023/09/03 04:38:27;;;;;;;3.42;2.10;;;;;;;14.64;87.90;101821.31;5013537;28;20053;-44
2023/09/03 04:40:55;;;;;;;6.90;2.30;;;;;;;14.62;88.06;101827.25;5010638;28;20046;-47
2023/09/03 04:43:22;;;;;;;6.70;2.40;;;;;;;14.61;87.96;101827.63;5011929;28;20037;-44
2023/09/03 04:45:51;;;;;;;4.68;2.58;;;;;;;14.58;88.32;101823.53;5011572;28;20176;-44
2023/09/03 04:48:20;;;;;;;6.22;2.03;;;;;;;14.55;88.54;101823.41;5004331;28;20441;-44
2023/09/03 04:50:48;;;;;;;4.43;2.45;;;;;;;14.54;88.69;101821.78;5011493;28;20108;-43
2023/09/03 04:53:15;;;;;;;2.35;2.03;;;;;;;14.52;88.90;101821.31;5010263;28;20968;-44
2023/09/03 04:55:42;;;;;;;3.20;2.05;;;;;;;14.49;88.92;101808.88;5007782;28;20049;-43
2023/09/03 04:58:09;;;;;;;4.75;2.70;;;;;;;14.46;89.12;101817.13;5009515;28;20061;-44
2023/09/03 05:00:36;;;;;;;3.70;2.22;;;;;;;14.43;89.18;101823.38;5011835;28;20049;-44
2023/09/03 05:03:04;;;;;;;3.55;2.35;;;;;;;14.41;89.52;101820.13;5011590;28;20056;-44
2023/09/03 05:05:39;;;;;;;6.88;2.25;;;;;;;14.39;89.61;101811.31;5010724;28;20042;-44
2023/09/03 05:08:08;;;;;;;5.53;2.38;;;;;;;14.36;89.52;101823.13;5013218;28;20052;-44
2023/09/03 05:10:35;;;;;;;6.53;2.38;;;;;;;14.35;89.72;101824.31;5001517;28;20053;-44
2023/09/03 05:13:04;;;;;;;4.35;2.05;;;;;;;14.31;89.82;101831.69;5010493;28;20046;-44
2023/09/03 05:15:31;;;;;;;5.10;2.08;;;;;;;14.26;89.82;101829.94;5009797;28;20117;-48
2023/09/03 05:18:00;;;;;;;4.95;2.90;;;;;;;14.23;89.93;101829.81;5009176;28;20054;-44
2023/09/03 05:20:28;;;;;;;4.50;2.17;;;;;;;14.22;90.21;101828.16;5008688;28;20129;-43
2023/09/03 05:22:55;;;;;;;5.22;2.88;;;;;;;14.21;90.22;101832.13;5001086;28;20502;-44
2023/09/03 05:25:22;;;;;;;5.93;2.67;;;;;;;14.22;90.31;101825.38;5010015;28;20421;-45
2023/09/03 05:27:52;;;;;;;5.07;3.05;;;;;;;14.24;90.36;101831.44;5010468;28;20053;-45
2023/09/03 05:30:19;;;;;;;4.25;2.95;;;;;;;14.26;90.53;101834.69;5010762;28;20104;-44
2023/09/03 05:32:46;;;;;;;7.05;2.67;;;;;;;14.29;90.58;101834.00;5009558;28;20034;-47
2023/09/03 05:35:13;;;;;;;5.60;4.18;;;;;;;14.31;90.55;101837.25;5011333;28;20571;-42
2023/09/03 05:37:40;;;;;;;8.65;5.88;;;;;;;14.31;90.71;101840.03;5008734;28;20056;-45
2023/09/03 05:40:10;;;;;;;9.50;5.38;;;;;;;14.32;90.94;101852.84;5010741;28;20377;-45
2023/09/03 05:42:37;;;;;;;10.13;6.28;;;;;;;14.32;91.41;101850.06;5010903;28;20140;-45
2023/09/03 05:45:04;;;;;;;13.18;7.28;;;;;;;14.31;91.72;101845.59;5009508;28;20077;-48
2023/09/03 05:47:31;;;;;;;10.98;6.88;;;;;;;14.31;92.12;101853.97;5008534;28;20476;-44
2023/09/03 05:49:58;;;;;;;13.27;7.30;;;;;;;14.34;92.60;101847.75;5010327;28;20042;-44
2023/09/03 05:52:25;;;;;;;11.60;6.82;;;;;;;14.34;93.16;101853.31;5006945;28;20065;-44
2023/09/03 05:54:52;;;;;;;12.93;8.18;;;;;;;14.36;93.44;101862.13;5010805;28;20041;-43
2023/09/03 05:57:19;;;;;;;11.13;7.15;;;;;;;14.37;93.54;101858.22;5009605;28;20042;-45
2023/09/03 05:59:50;;;;;;;10.15;7.20;;;;;;;14.39;94.17;101856.69;5012337;28;20042;-44
2023/09/03 06:02:17;;;;;;;14.23;7.72;;;;;;;14.40;94.25;101861.09;5007754;28;20066;-43
2023/09/03 06:04:44;;;;;;;9.32;7.22;;;;;;;14.44;94.56;101858.44;5003917;28;20060;-43
2023/09/03 06:07:11;;;;;;;10.32;6.70;;;;;;;14.48;94.92;101864.97;5010235;28;20116;-45
2023/09/03 06:09:38;;;;;;;10.48;7.00;;;;;;;14.51;95.11;101864.25;5011734;28;20038;-44
2023/09/03 06:12:05;;;;;;;11.27;6.32;;;;;;;14.52;95.24;101860.31;5010872;28;20064;-44
2023/09/03 06:14:32;;;;;;;8.90;6.03;;;;;;;14.54;95.47;101858.00;5010917;28;20042;-44
2023/09/03 06:16:59;;;;;;;9.68;7.05;;;;;;;14.58;95.67;101870.09;5010964;28;20046;-43
2023/09/03 06:19:26;;;;;;;9.73;6.57;;;;;;;14.59;95.82;101866.97;5010384;28;20054;-44
2023/09/03 06:21:52;;;;;;;10.85;6.13;;;;;;;14.63;95.83;101872.66;5009786;28;20141;-44
2023/09/03 06:24:19;;;;;;;10.10;6.43;;;;;;;14.63;96.19;101875.47;5010447;28;20124;-44
2023/09/03 06:26:46;;;;;;;10.18;6.88;;;;;;;14.65;96.32;101878.69;5009421;28;20053;-43
2023/09/03 06:29:13;;;;;;;14.40;6.50;;;;;;;14.66;96.57;101869.19;5008424;28;20049;-44
2023/09/03 06:31:40;;;;;;;11.20;6.55;;;;;;;14.70;96.81;101877.66;5008978;28;20484;-46
2023/09/03 06:34:07;;;;;;;8.80;5.32;;;;;;;14.71;96.77;101882.91;5011002;28;20046;-47
2023/09/03 06:36:34;;;;;;;8.68;6.15;;;;;;;14.74;96.85;101889.75;5009258;28;20049;-44
2023/09/03 06:39:02;;;;;;;9.75;6.07;;;;;;;14.77;96.98;101889.91;5009686;28;20042;-43
2023/09/03 06:41:29;;;;;;;10.88;5.43;;;;;;;14.80;97.25;101888.38;5010015;28;20143;-43
2023/09/03 06:43:56;;;;;;;8.45;5.50;;;;;;;14.82;97.16;101886.06;5008783;28;20395;-44
2023/09/03 06:46:23;;;;;;;8.85;5.20;;;;;;;14.85;97.33;101886.16;5008648;28;20121;-44
2023/09/03 06:48:49;;;;;;;5.43;4.30;;;;;;;14.89;97.47;101889.09;5009359;28;20839;-43
2023/09/03 06:51:19;;;;;;;6.80;5.00;;;;;;;14.93;97.50;101892.81;5006305;28;20070;-43
2023/09/03 06:53:45;;;;;;;7.88;4.50;;;;;;;14.96;97.53;101878.97;5009771;28;20049;-43
2023/09/03 06:56:13;;;;;;;7.70;4.30;;;;;;;14.99;97.79;101886.66;4998690;28;20484;-45
2023/09/03 06:58:40;;;;;;;5.57;3.95;;;;;;;15.02;97.80;101885.97;5010396;28;20045;-44
2023/09/03 07:01:07;;;;;;;6.68;4.25;;;;;;;15.05;97.94;101890.03;5001813;28;20081;-43
2023/09/03 07:03:34;;;;;;;6.75;4.20;;;;;;;15.07;97.97;101891.31;5008337;28;20068;-46
2023/09/03 07:06:01;;;;;;;7.28;4.57;;;;;;;15.09;97.95;101900.13;5008360;28;20044;-43
2023/09/03 07:08:29;;;;;;;7.78;4.07;;;;;;;15.15;98.08;101887.59;5014860;28;20062;-43
2023/09/03 07:11:00;;;;;;;5.90;3.13;;;;;;;15.17;98.13;101890.03;5008513;28;20144;-43
2023/09/03 07:13:27;;;;;;;7.50;3.33;;;;;;;15.20;98.07;101892.94;5003842;28;20082;-44
2023/09/03 07:15:53;;;;;;;5.10;3.65;;;;;;;15.22;98.03;101896.19;5009247;28;20034;-43
2023/09/03 07:18:20;;;;;;;5.30;2.78;;;;;;;15.25;97.90;101898.28;5007129;28;20042;-43
2023/09/03 07:20:48;;;;;;;5.40;3.42;;;;;;;15.28;97.87;101899.56;5006495;28;20038;-43
2023/09/03 07:23:15;;;;;;;4.25;3.83;;;;;;;15.33;98.08;101893.75;5007613;28;20049;-44
2023/09/03 07:25:42;;;;;;;4.40;3.05;;;;;;;15.37;97.95;101896.66;5017883;28;20522;-48
2023/09/03 07:28:09;;;;;;;4.13;3.00;;;;;;;15.39;97.67;101905.50;5011440;28;20069;-45
2023/09/03 07:30:38;;;;;;;6.05;3.13;;;;;;;15.42;97.58;101911.19;5012881;28;20050;-45
2023/09/03 07:33:05;;;;;;;6.38;2.65;;;;;;;15.45;97.58;101915.25;5013219;28;20069;-45
2023/09/03 07:35:32;;;;;;;5.32;2.58;;;;;;;15.47;97.60;101918.53;5014449;28;20100;-44
2023/09/03 07:37:59;;;;;;;4.65;2.58;;;;;;;15.51;97.57;101919.47;5011478;28;20046;-46
2023/09/03 07:40:28;;;;;;;6.90;3.35;;;;;;;15.55;97.57;101912.03;5011669;28;20128;-44
2023/09/03 07:42:55;;;;;;;5.10;3.00;;;;;;;15.60;97.63;101918.19;5011957;28;20049;-43
2023/09/03 07:45:22;;;;;;;6.18;2.05;;;;;;;15.65;97.62;101917.13;5010761;28;20492;-45
2023/09/03 07:47:49;;;;;;;3.97;1.80;;;;;;;15.68;97.57;101917.25;5010754;28;20046;-48
2023/09/03 07:50:16;;;;;;;5.07;2.58;;;;;;;15.72;97.77;101926.56;5006017;28;20061;-46
2023/09/03 07:52:43;;;;;;;3.33;2.40;;;;;;;15.78;97.67;101929.91;5007001;28;20486;-44
2023/09/03 07:55:10;;;;;;;3.78;2.50;;;;;;;15.81;97.55;101932.00;5008235;28;20049;-45
2023/09/03 07:57:37;;;;;;;4.75;2.50;;;;;;;15.87;97.66;101926.97;5008155;28;20081;-43
2023/09/03 08:00:04;;;;;;;3.03;2.30;;;;;;;15.93;97.69;101931.16;5013790;28;20069;-46
2023/09/03 08:02:31;;;;;;;6.10;2.85;;;;;;;15.99;97.67;101938.13;5010789;28;20046;-43
2023/09/03 08:04:58;;;;;;;4.50;2.47;;;;;;;16.06;97.62;101947.53;5007676;28;20042;-45
2023/09/03 08:07:25;;;;;;;3.95;2.95;;;;;;;16.10;97.68;101942.88;5012518;28;20095;-46
2023/09/03 08:09:52;;;;;;;6.10;3.42;;;;;;;16.18;97.78;101950.28;5013301;28;20050;-45
2023/09/03 08:12:19;;;;;;;4.40;2.85;;;;;;;16.25;97.83;101949.69;5011591;28;20046;-46
2023/09/03 08:14:48;;;;;;;4.18;2.33;;;;;;;16.31;97.88;101946.28;5013876;28;20443;-46
2023/09/03 08:17:15;;;;;;;3.75;2.45;;;;;;;16.42;98.13;101950.22;5013642;28;20050;-45
2023/09/03 08:19:42;;;;;;;6.50;2.28;;;;;;;16.56;98.75;101954.59;5010269;28;20093;-45
2023/09/03 08:22:09;;;;;;;4.72;2.35;;;;;;;16.70;99.29;101952.22;5011047;28;20049;-48
2023/09/03 08:24:36;;;;;;;4.00;2.35;;;;;;;16.82;100.00;101958.56;5010535;28;20038;-46
2023/09/03 08:27:03;;;;;;;7.95;2.55;;;;;;;16.97;100.00;101962.56;5008170;28;20049;-45
2023/09/03 08:29:29;;;;;;;3.95;2.00;;;;;;;17.15;100.00;101963.84;5010472;28;20048;-46
2023/09/03 08:31:56;;;;;;;4.63;1.90;;;;;;;17.31;100.00;101963.84;5006091;28;20058;-46
2023/09/03 08:34:23;;;;;;;5.13;2.13;;;;;;;17.51;100.00;101969.16;5009889;28;20120;-46
2023/09/03 08:36:50;;;;;;;3.63;1.90;;;;;;;17.76;100.00;101968.97;5009593;28;20049;-46
2023/09/03 08:39:17;;;;;;;4.00;2.20;;;;;;;18.05;100.00;101979.66;5010434;28;20049;-47
2023/09/03 08:41:46;;;;;;;3.83;2.47;;;;;;;18.39;100.00;101975.19;5013091;28;20046;-47
2023/09/03 08:44:28;;;;;;;5.00;2.03;;;;;;;18.84;100.00;101976.16;5010369;28;20049;-47
2023/09/03 08:46:58;;;;;;;;;;;;;;;19.32;100.00;101979.44;5011128;28;20120;-45
2023/09/03 08:49:32;;;;;;;3.20;1.85;;;;;;;20.22;100.00;101983.28;4990858;28;20060;-45
2023/09/03 08:51:59;;;;;;;5.80;1.90;;;;;;;21.32;100.00;101988.19;5011630;28;20057;-45
2023/09/03 08:54:27;;;;;;;1.50;1.30;;;;;;;22.45;100.00;101987.81;5011378;28;20526;-47
2023/09/03 08:56:55;;;;;;;4.53;1.30;;;;;;;23.55;90.90;101999.44;5012799;28;20053;-45
2023/09/03 08:59:22;;;;;;;1.70;1.60;;;;;;;24.50;83.57;101987.94;5008403;28;20487;-46
2023/09/03 09:01:53;;;;;;;2.72;1.63;;;;;;;25.28;78.87;101994.00;5012348;28;20093;-46
2023/09/03 09:04:20;;;;;;;3.33;1.40;;;;;;;25.87;73.97;102000.44;5012046;28;20492;-46
2023/09/03 09:06:48;;;;;;;4.43;1.52;;;;;;;26.48;69.29;102007.09;5005146;28;20050;-46
2023/09/03 09:09:16;;;;;;;4.72;1.50;;;;;;;27.19;65.32;102001.25;5012954;28;20053;-46
2023/09/03 09:11:51;;;;;;;5.47;1.20;;;;;;;27.68;64.43;102007.44;5012360;28;20492;-46
2023/09/03 09:14:38;;;;;;;3.17;1.58;;;;;;;28.14;62.11;102010.28;5010635;28;20120;-46
2023/09/03 09:17:11;;;;;;;2.85;1.30;;;;;;;28.58;59.22;102002.47;5001992;28;20050;-47
2023/09/03 09:19:38;;;;;;;6.07;1.83;;;;;;;28.89;55.67;102007.50;5011917;28;20042;-47
2023/09/03 09:22:05;;;;;;;7.55;1.70;;;;;;;29.17;54.04;102005.25;5008868;28;20125;-46
2023/09/03 09:24:41;;;;;;;4.22;1.45;;;;;;;29.40;54.04;102013.69;5006071;28;20058;-55
2023/09/03 09:27:19;;;;;;;2.65;1.23;;;;;;;29.56;53.19;102011.66;4985334;28;20050;-47
2023/09/03 09:29:46;;;;;;;3.90;1.73;;;;;;;29.76;50.37;102014.41;5007461;28;20058;-46
2023/09/03 09:32:18;;;;;;;3.53;1.70;;;;;;;29.78;50.69;101999.69;5008158;28;20061;-46
2023/09/03 09:34:46;;;;;;;3.90;1.23;;;;;;;29.89;49.21;102000.25;5007091;28;20053;-48
2023/09/03 09:37:13;;;;;;;3.00;1.67;;;;;;;30.11;47.73;102001.25;5007223;28;20053;-46
2023/09/03 09:39:48;;;;;;;3.58;1.45;;;;;;;30.12;48.67;102002.88;5001030;28;20511;-48
2023/09/03 09:42:18;;;;;;;6.95;1.92;;;;;;;29.93;47.66;101998.09;5008285;28;20065;-46
2023/09/03 09:44:48;;;;;;;2.75;1.65;;;;;;;29.99;48.02;101997.09;5010465;28;20627;-47
2023/09/03 09:47:16;;;;;;;2.08;1.20;;;;;;;30.00;46.80;102000.75;5008802;28;20489;-47
2023/09/03 09:49:45;;;;;;;2.15;1.30;;;;;;;30.00;46.75;101995.03;5008338;28;20068;-47
2023/09/03 09:52:12;;;;;;;2.75;1.45;;;;;;;30.01;46.19;101996.66;5009540;28;20462;-46
2023/09/03 09:54:41;;;;;;;2.88;1.17;;;;;;;29.73;46.21;101992.47;5009266;28;20132;-51
2023/09/03 09:57:13;;;;;;;1.52;1.30;;;;;;;29.40;47.01;101988.81;5008213;28;20129;-46
2023/09/03 09:59:50;;;;;;;2.38;1.35;;;;;;;29.11;47.28;101985.03;5005059;28;20038;-46
2023/09/03 10:02:17;;;;;;;3.90;1.65;;;;;;;28.56;47.94;101982.16;5007260;28;20053;-46
2023/09/03 10:04:45;;;;;;;5.53;1.95;;;;;;;27.79;48.72;101980.41;5006566;28;20058;-44
2023/09/03 10:07:13;;;;;;;1.20;0.95;;;;;;;27.64;49.12;101981.09;5009895;28;20077;-46
2023/09/03 10:09:42;;;;;;;2.53;1.05;;;;;;;27.31;49.90;101987.69;5011703;28;20048;-45
2023/09/03 10:12:10;;;;;;;2.25;1.70;;;;;;;27.65;48.88;101985.53;5006447;28;20050;-46
2023/09/03 10:14:37;;;;;;;4.78;1.50;;;;;;;27.56;48.86;101983.22;5005217;28;20069;-46
2023/09/03 10:17:06;;;;;;;3.45;1.90;;;;;;;27.68;48.80;101979.78;5008790;28;20420;-49
2023/09/03 10:19:54;;;;;;;5.10;1.58;;;;;;;28.04;48.77;101985.63;5008198;28;20377;-45
2023/09/03 10:22:23;;;;;;;4.45;1.35;;;;;;;28.26;47.91;101977.50;5006160;28;20038;-45
2023/09/03 10:24:57;;;;;;;2.22;1.10;;;;;;;28.68;47.32;101975.81;5008486;28;20519;-45
2023/09/03 10:27:28;;;;;;;9.70;2.13;;;;;;;28.99;46.60;101971.47;5018452;28;20045;-45
2023/09/03 10:29:56;;;;;;;;;;;;;;;29.06;46.61;101970.47;4998284;28;20058;-47
2023/09/03 10:32:26;;;;;;;4.18;1.20;;;;;;;29.27;45.87;101973.66;5005439;28;19925;-45
2023/09/03 10:34:52;;;;;;;4.32;1.20;;;;;;;29.39;45.28;101972.13;5002803;28;20054;-45
2023/09/03 10:37:22;;;;;;;2.28;1.10;;;;;;;29.47;44.75;101980.06;5009211;28;20570;-47
2023/09/03 10:39:49;;;;;;;2.65;1.08;;;;;;;29.42;44.58;101994.88;5010318;28;20046;-46
2023/09/03 10:42:16;;;;;;;2.53;1.10;;;;;;;29.34;44.64;101984.88;5009296;28;20038;-45
2023/09/03 10:44:49;;;;;;;5.50;1.85;;;;;;;29.09;44.12;101981.00;5011355;28;20046;-45
2023/09/03 10:47:18;;;;;;;1.20;0.75;;;;;;;28.69;44.74;101978.25;5005569;28;20038;-45
2023/09/03 10:49:53;;;;;;;2.08;1.15;;;;;;;28.32;44.89;101975.75;5011426;28;20503;-45
2023/09/03 10:52:32;;;;;;;2.10;1.08;;;;;;;27.80;46.10;101975.47;5007230;28;20057;-45
2023/09/03 10:55:19;;;;;;;2.15;0.70;;;;;;;27.30;46.71;101977.56;5004028;28;20112;-46
2023/09/03 10:57:49;;;;;;;5.32;0.75;;;;;;;26.69;48.17;101963.38;5018016;28;20556;-46
2023/09/03 11:00:23;;;;;;;2.92;0.80;;;;;;;26.20;48.79;101964.84;5013015;28;20072;-47
2023/09/03 11:03:15;;;;;;;1.65;0.65;;;;;;;25.49;50.16;101956.22;5008803;28;20061;-46
2023/09/03 11:06:16;;;;;;;1.17;0.75;;;;;;;25.07;51.38;101956.53;5009729;28;20052;-45
2023/09/03 11:08:43;;;;;;;2.83;1.83;;;;;;;24.88;52.27;101951.38;5013699;28;20042;-45
2023/09/03 11:11:10;;;;;;;2.25;0.93;;;;;;;24.69;52.82;101945.00;5014158;28;20050;-50
2023/09/03 11:13:38;;;;;;;3.13;0.80;;;;;;;24.53;53.70;101941.03;5004948;28;20050;-45
2023/09/03 11:16:05;;;;;;;2.42;0.90;;;;;;;24.38;54.15;101940.28;5004469;28;20458;-46
2023/09/03 11:18:32;;;;;;;2.83;1.00;;;;;;;24.20;54.78;101946.00;5001501;28;20045;-44
2023/09/03 11:21:01;;;;;;;3.22;1.05;;;;;;;24.02;55.35;101938.75;5012589;28;20052;-46
2023/09/03 11:23:29;;;;;;;7.22;1.98;;;;;;;23.87;55.90;101937.19;5006257;28;20430;-47
2023/09/03 11:26:00;;;;;;;;;;;;;;;23.64;56.22;101938.44;5002039;28;20045;-49
2023/09/03 11:28:33;;;;;;;6.28;1.25;;;;;;;23.51;56.63;101937.22;5012775;28;19922;-53
2023/09/03 11:31:01;;;;;;;1.23;0.75;;;;;;;23.40;56.88;101944.94;5008691;28;20061;-48
2023/09/03 11:33:28;;;;;;;4.10;0.90;;;;;;;23.31;57.54;101927.53;5014522;28;20046;-47
2023/09/03 11:35:57;;;;;;;2.20;1.05;;;;;;;23.27;57.69;101938.00;5010709;28;20041;-46
2023/09/03 11:38:27;;;;;;;1.33;0.68;;;;;;;23.18;58.26;101940.44;5006992;28;20042;-47
2023/09/03 11:40:58;;;;;;;3.23;1.27;;;;;;;23.15;58.38;101941.25;5014911;28;20646;-46
2023/09/03 11:43:28;;;;;;;;;;;;;;;23.08;58.60;101929.13;5011778;28;20733;-45
2023/09/03 11:45:56;;;;;;;4.30;1.60;;;;;;;23.08;58.82;101938.41;5010989;28;19929;-47
2023/09/03 11:48:27;;;;;;;1.38;0.93;;;;;;;23.07;59.20;101924.69;5012257;28;20489;-44
2023/09/03 11:50:54;;;;;;;1.20;0.80;;;;;;;23.08;59.30;101929.94;5007352;28;20054;-46
2023/09/03 11:53:24;;;;;;;1.38;0.90;;;;;;;23.09;59.03;101920.25;5012529;28;20034;-44
2023/09/03 11:55:59;;;;;;;3.35;0.80;;;;;;;23.10;59.07;101916.22;5012492;28;20057;-45
2023/09/03 11:58:28;;;;;;;6.03;0.88;;;;;;;23.13;59.37;101921.06;5009839;28;20081;-45
2023/09/03 12:00:56;;;;;;;2.78;0.85;;;;;;;23.20;58.76;101926.72;5012041;28;20515;-45
2023/09/03 12:03:24;;;;;;;2.25;1.27;;;;;;;23.22;59.59;101924.28;5010092;28;20057;-47
2023/09/03 12:05:52;;;;;;;2.95;1.13;;;;;;;23.27;60.12;101923.09;5009476;28;20045;-45
2023/09/03 12:08:19;;;;;;;2.45;1.58;;;;;;;23.30;60.16;101920.25;5008104;28;20073;-47
2023/09/03 12:10:48;;;;;;;3.13;1.05;;;;;;;23.32;60.19;101915.03;5010649;28;20786;-46
2023/09/03 12:13:34;;;;;;;1.90;0.88;;;;;;;23.34;60.13;101921.06;5003053;28;20127;-46
2023/09/03 12:16:14;;;;;;;4.40;1.25;;;;;;;23.37;60.18;101916.66;5005902;28;20034;-46
2023/09/03 12:18:59;;;;;;;4.47;1.10;;;;;;;23.40;60.52;101919.50;5003620;28;20045;-47
2023/09/03 12:21:36;;;;;;;1.67;1.08;;;;;;;23.44;60.18;101931.59;5010191;28;20081;-45
2023/09/03 12:24:06;;;;;;;3.50;1.70;;;;;;;23.49;59.96;101924.72;5008368;28;20046;-48
2023/09/03 12:26:37;;;;;;;1.95;0.93;;;;;;;23.55;59.55;101918.25;5006416;28;20073;-45
2023/09/03 12:29:17;;;;;;;2.25;1.30;;;;;;;23.58;59.85;101916.63;5007169;28;20046;-47
2023/09/03 12:31:45;;;;;;;2.88;1.00;;;;;;;23.63;59.93;101922.69;5011849;28;20049;-45
2023/09/03 12:34:14;;;;;;;3.08;1.13;;;;;;;23.66;59.34;101926.72;5007166;28;20046;-45
2023/09/03 12:36:55;;;;;;;1.80;1.05;;;;;;;23.69;59.20;101908.94;5011437;28;20037;-45
2023/09/03 12:39:35;;;;;;;4.18;1.90;;;;;;;23.71;59.79;101911.34;5003898;28;20415;-45
2023/09/03 12:42:04;;;;;;;2.47;1.20;;;;;;;23.73;59.66;101909.72;5009712;28;20459;-46
2023/09/03 12:44:32;;;;;;;3.47;1.27;;;;;;;23.78;59.87;101906.50;4993563;28;20045;-45
2023/09/03 12:46:59;;;;;;;2.22;1.13;;;;;;;23.83;59.71;101902.47;5001880;28;20393;-46
2023/09/03 12:49:27;;;;;;;6.03;1.70;;;;;;;23.87;59.71;101898.41;5010345;28;20049;-45
2023/09/03 12:51:55;;;;;;;3.25;1.63;;;;;;;23.93;59.68;101895.97;5014981;28;20050;-46
2023/09/03 12:54:22;;;;;;;5.55;1.48;;;;;;;23.97;59.41;101886.25;5011488;28;20496;-47
2023/09/03 12:56:50;;;;;;;1.45;1.20;;;;;;;24.05;59.33;101887.81;5013192;28;20431;-46
2023/09/03 12:59:16;;;;;;;1.63;1.10;;;;;;;24.11;58.99;101888.25;5006027;28;20053;-46
2023/09/03 13:01:43;;;;;;;3.85;1.35;;;;;;;24.15;59.24;101887.00;5009455;28;20042;-45
2023/09/03 13:04:12;;;;;;;3.78;1.33;;;;;;;24.23;58.64;101882.13;5014937;28;20057;-46
2023/09/03 13:06:41;;;;;;;2.25;1.33;;;;;;;24.29;58.82;101880.47;5012869;28;20121;-46
2023/09/03 13:09:08;;;;;;;3.05;1.23;;;;;;;24.35;59.04;101887.31;5012620;28;20046;-46
2023/09/03 13:11:35;;;;;;;3.92;0.98;;;;;;;24.41;58.66;101880.00;5013194;28;20054;-45
2023/09/03 13:14:02;;;;;;;3.80;1.25;;;;;;;24.53;58.54;101884.38;5006904;28;20495;-44
2023/09/03 13:16:29;;;;;;;8.80;1.40;;;;;;;24.58;57.83;101881.94;5011303;28;20492;-45
2023/09/03 13:18:57;;;;;;;3.17;0.93;;;;;;;24.66;58.19;101877.84;4996178;28;20726;-45
2023/09/03 13:21:24;;;;;;;1.95;1.33;;;;;;;24.69;58.41;101873.38;5016414;28;20415;-46
2023/09/03 13:23:51;;;;;;;1.98;0.82;;;;;;;24.77;58.46;101872.91;5005665;28;20177;-44
2023/09/03 13:26:18;;;;;;;1.20;0.70;;;;;;;24.99;57.88;101867.13;5009473;28;20038;-44
2023/09/03 13:28:45;;;;;;;2.13;1.05;;;;;;;25.10;57.46;101867.84;5008180;28;20045;-46
2023/09/03 13:31:11;;;;;;;0.80;0.68;;;;;;;25.25;56.85;101867.28;5004419;28;20037;-47
2023/09/03 13:33:39;;;;;;;1.92;0.70;;;;;;;25.36;56.87;101870.03;5005935;28;20081;-44
2023/09/03 13:36:10;;;;;;;2.08;1.17;;;;;;;25.44;56.29;101882.91;5009742;28;20048;-45
2023/09/03 13:38:38;;;;;;;2.05;0.60;;;;;;;25.52;56.30;101881.66;5011439;28;20066;-45
2023/09/03 13:41:05;;;;;;;1.75;1.25;;;;;;;25.62;55.45;101889.25;5009242;28;20112;-46
2023/09/03 13:43:33;;;;;;;1.23;0.57;;;;;;;25.69;54.95;101886.31;5003041;28;20050;-46
2023/09/03 13:46:00;;;;;;;1.90;0.90;;;;;;;25.82;54.76;101892.25;5010091;28;20046;-46
2023/09/03 13:48:28;;;;;;;1.73;0.80;;;;;;;25.91;55.00;101892.56;5008518;28;20056;-45
2023/09/03 13:50:55;;;;;;;2.00;0.80;;;;;;;26.05;54.09;101885.94;5007730;28;20112;-45
2023/09/03 13:53:22;;;;;;;1.30;0.60;;;;;;;26.11;54.08;101899.22;5009256;28;20038;-45
2023/09/03 13:55:50;;;;;;;1.38;0.80;;;;;;;26.17;53.67;101891.06;5012723;28;20053;-46
2023/09/03 13:58:17;;;;;;;2.45;0.70;;;;;;;26.20;53.30;101893.06;5006707;28;20064;-46
2023/09/03 14:00:44;;;;;;;1.70;0.70;;;;;;;26.29;52.86;101882.00;5004259;28;20476;-45
2023/09/03 14:03:11;;;;;;;1.15;0.45;;;;;;;26.32;53.11;101875.44;4999848;28;20058;-46
2023/09/03 14:05:38;;;;;;;2.03;1.08;;;;;;;26.37;52.54;101884.28;5006626;28;20082;-46
2023/09/03 14:08:06;;;;;;;1.98;0.60;;;;;;;26.43;52.91;101881.78;4998694;28;20074;-51
2023/09/03 14:10:33;;;;;;;3.03;1.50;;;;;;;26.54;52.97;101879.59;5003344;28;20073;-45
2023/09/03 14:13:00;;;;;;;1.40;0.90;;;;;;;26.65;52.75;101876.63;5007126;28;20546;-45
2023/09/03 14:15:27;;;;;;;2.88;1.35;;;;;;;26.79;51.98;101882.94;4998906;28;20049;-46
2023/09/03 14:17:54;;;;;;;2.63;1.23;;;;;;;26.92;51.31;101885.97;5005110;28;20042;-45
2023/09/03 14:20:21;;;;;;;0.90;0.80;;;;;;;27.00;50.82;101888.28;4999450;28;20038;-45
2023/09/03 14:22:48;;;;;;;1.90;0.73;;;;;;;27.10;51.21;101883.63;5007244;28;20057;-45
2023/09/03 14:25:15;;;;;;;2.22;1.17;;;;;;;27.26;50.83;101883.78;5008560;28;20054;-45
2023/09/03 14:27:42;;;;;;;3.67;2.45;;;;;;;27.34;49.76;101879.56;5014024;28;20049;-45
2023/09/03 14:30:09;;;;;;;5.40;2.65;;;;;;;27.43;50.10;101881.91;5010790;28;20049;-46
2023/09/03 14:32:36;;;;;;;4.05;1.58;;;;;;;27.40;50.10;101882.75;5004679;28;20053;-45